Time;durP1;ratioP1;P1;durP2;ratioP2;P2;SDS_P1;SDS_P2;PMS_P1;PMS_P2;Temp;Humidity;BMP_temperature;BMP_pressure;BME280_temperature;BME280_humidity;BME280_pressure;Samples;Min_cycle;Max_cycle;Signal;HPM_P1;HPM_P2
2023/03/30 00:00:32;;;;;;;35.90;24.30;;;9.70;16.80;;;;;;5035544;28;20425;-49
2023/03/30 00:03:01;;;;;;;36.23;24.03;;;9.70;26.60;;;;;;5035595;28;20245;-49
2023/03/30 00:05:27;;;;;;;40.00;26.07;;;9.60;74.10;;;;;;5035581;28;20190;-49
2023/03/30 00:07:54;;;;;;;39.93;24.57;;;9.70;99.90;;;;;;5035547;28;20425;-49
2023/03/30 00:10:20;;;;;;;43.50;25.63;;;9.70;99.90;;;;;;5035244;28;20507;-49
2023/03/30 00:12:47;;;;;;;36.57;23.97;;;9.70;99.90;;;;;;5035279;28;20522;-49
2023/03/30 00:15:15;;;;;;;37.80;25.43;;;9.70;99.90;;;;;;5035695;28;20420;-49
2023/03/30 00:17:42;;;;;;;38.17;26.30;;;9.80;99.90;;;;;;5035567;28;20600;-49
2023/03/30 00:20:10;;;;;;;38.73;26.10;;;9.70;99.30;;;;;;5035600;28;20462;-49
2023/03/30 00:22:46;;;;;;;42.03;25.10;;;9.70;91.50;;;;;;5035371;28;20475;-49
2023/03/30 00:25:14;;;;;;;40.20;25.10;;;9.70;98.10;;;;;;5035118;28;20892;-49
2023/03/30 00:27:40;;;;;;;37.40;24.30;;;9.80;99.90;;;;;;5035262;28;20420;-49
2023/03/30 00:30:11;;;;;;;37.13;25.03;;;9.70;99.90;;;;;;5035240;28;20414;-49
2023/03/30 00:32:36;;;;;;;36.73;24.07;;;9.70;99.90;;;;;;5034928;28;20417;-49
2023/03/30 00:35:04;;;;;;;40.30;24.17;;;9.80;99.90;;;;;;5034985;28;20409;-49
2023/03/30 00:37:29;;;;;;;41.70;25.47;;;9.80;99.90;;;;;;5035035;28;20424;-49
2023/03/30 00:39:55;;;;;;;37.97;24.43;;;9.90;21.10;;;;;;5034923;28;20460;-49
2023/03/30 00:42:21;;;;;;;34.70;23.93;;;9.80;1.00;;;;;;5034739;28;20249;-49
2023/03/30 00:45:09;;;;;;;36.60;22.43;;;9.70;1.00;;;;;;5034315;28;20242;-49
2023/03/30 00:47:41;;;;;;;38.27;23.50;;;9.80;1.00;;;;;;5034587;28;20921;-49
2023/03/30 00:50:08;;;;;;;36.30;22.47;;;9.80;10.80;;;;;;5034333;28;20425;-49
2023/03/30 00:52:36;;;;;;;34.87;22.73;;;9.80;1.00;;;;;;5034473;28;20781;-49
2023/03/30 00:55:03;;;;;;;37.93;22.40;;;9.70;1.00;;;;;;5034540;28;20418;-49
2023/03/30 00:57:30;;;;;;;37.80;22.80;;;9.80;5.00;;;;;;5034350;28;20439;-49
2023/03/30 00:59:56;;;;;;;36.77;23.20;;;9.80;1.00;;;;;;5034623;28;20419;-49
2023/03/30 01:02:22;;;;;;;32.23;21.07;;;9.70;1.00;;;;;;5034200;28;20487;-49
2023/03/30 01:04:51;;;;;;;38.33;22.50;;;9.80;1.00;;;;;;5034441;28;20933;-49
2023/03/30 01:07:18;;;;;;;32.77;22.30;;;9.80;1.00;;;;;;5034572;28;20841;-49
2023/03/30 01:09:44;;;;;;;31.70;21.60;;;9.70;1.00;;;;;;5034623;28;20463;-49
2023/03/30 01:12:10;;;;;;;35.13;22.00;;;9.70;1.00;;;;;;5034410;28;20421;-49
2023/03/30 01:14:37;;;;;;;33.80;21.90;;;9.70;1.00;;;;;;5034380;28;20861;-49
2023/03/30 01:17:28;;;;;;;36.60;22.70;;;9.70;68.80;;;;;;5033938;28;20622;-50
2023/03/30 01:20:16;;;;;;;35.90;21.30;;;9.70;74.10;;;;;;5034291;28;20417;-49
2023/03/30 01:23:11;;;;;;;38.10;22.03;;;9.80;93.50;;;;;;5034475;28;20456;-49
2023/03/30 01:25:56;;;;;;;29.47;19.90;;;9.80;2.80;;;;;;5034183;28;20398;-49
2023/03/30 01:28:36;;;;;;;30.20;21.40;;;9.80;1.00;;;;;;5034212;28;20471;-50
2023/03/30 01:31:20;;;;;;;32.27;20.73;;;9.70;1.00;;;;;;5034066;28;20405;-49
2023/03/30 01:34:10;;;;;;;31.13;20.70;;;9.80;1.00;;;;;;5034242;28;20503;-49
2023/03/30 01:36:58;;;;;;;32.60;21.27;;;9.80;1.00;;;;;;5033759;28;20909;-49
2023/03/30 01:39:52;;;;;;;39.47;21.30;;;9.80;1.00;;;;;;5033746;28;20425;-49
2023/03/30 01:42:31;;;;;;;32.58;22.67;;;9.70;1.00;;;;;;5033371;28;20433;-49
2023/03/30 01:45:33;;;;;;;30.67;21.13;;;9.70;32.60;;;;;;5033489;28;20248;-49
2023/03/30 01:48:09;;;;;;;31.08;22.95;;;9.80;99.90;;;;;;5032388;28;20746;-49
2023/03/30 01:50:43;;;;;;;35.40;20.97;;;9.80;99.90;;;;;;5034163;28;20174;-50
2023/03/30 01:53:21;;;;;;;31.67;22.70;;;9.80;99.90;;;;;;5033675;28;20462;-49
2023/03/30 01:56:17;;;;;;;35.93;22.07;;;9.80;99.90;;;;;;5033951;28;20416;-50
2023/03/30 01:58:51;;;;;;;29.57;20.90;;;9.80;99.90;;;;;;5033784;28;20413;-49
2023/03/30 02:01:19;;;;;;;32.07;19.67;;;9.80;99.90;;;;;;5033714;28;20406;-49
2023/03/30 02:03:52;;;;;;;33.97;21.23;;;9.80;99.90;;;;;;5033858;28;20413;-49
2023/03/30 02:06:24;;;;;;;33.63;20.27;;;9.70;99.90;;;;;;5033536;28;20401;-49
2023/03/30 02:08:53;;;;;;;32.30;20.40;;;9.60;99.90;;;;;;5033263;28;20410;-49
2023/03/30 02:11:21;;;;;;;32.33;21.30;;;9.60;1.00;;;;;;5033749;28;20475;-49
2023/03/30 02:13:50;;;;;;;36.30;22.77;;;9.60;1.00;;;;;;5033640;28;20896;-50
2023/03/30 02:16:23;;;;;;;30.20;20.50;;;9.50;1.00;;;;;;5033497;28;20405;-49
2023/03/30 02:18:49;;;;;;;35.00;22.17;;;9.50;1.00;;;;;;5033857;28;20405;-49
2023/03/30 02:21:15;;;;;;;36.87;22.73;;;9.50;1.00;;;;;;5033145;28;20421;-49
2023/03/30 02:23:45;;;;;;;32.33;20.67;;;9.60;15.80;;;;;;5033324;28;20779;-48
2023/03/30 02:26:11;;;;;;;32.37;21.40;;;9.50;26.40;;;;;;5033318;28;20436;-48
2023/03/30 02:28:37;;;;;;;37.30;22.10;;;9.50;55.20;;;;;;5033184;28;20508;-48
2023/03/30 02:31:03;;;;;;;32.87;21.60;;;9.60;84.00;;;;;;5033623;28;20504;-49
2023/03/30 02:33:58;;;;;;;44.00;22.37;;;9.50;92.00;;;;;;5033409;28;20508;-49
2023/03/30 02:36:33;;;;;;;33.30;21.13;;;9.60;99.90;;;;;;5031987;28;20792;-49
2023/03/30 02:39:16;;;;;;;35.40;21.70;;;9.50;99.90;;;;;;5033285;28;20475;-48
2023/03/30 02:42:12;;;;;;;39.03;21.37;;;9.50;99.90;;;;;;5032867;28;20547;-48
2023/03/30 02:45:03;;;;;;;33.60;21.30;;;9.50;99.90;;;;;;5032588;28;20626;-48
2023/03/30 02:47:53;;;;;;;39.73;23.03;;;9.50;99.90;;;;;;5033648;28;20861;-48
2023/03/30 02:50:34;;;;;;;35.23;22.00;;;9.40;99.90;;;;;;5033600;28;20436;-48
2023/03/30 02:53:26;;;;;;;36.80;22.07;;;9.40;99.90;;;;;;5033288;28;20408;-48
2023/03/30 02:56:04;;;;;;;38.77;22.53;;;9.40;99.90;;;;;;5028245;28;20451;-48
2023/03/30 02:58:36;;;;;;;35.80;21.83;;;9.60;99.90;;;;;;5032967;28;20739;-48
2023/03/30 03:01:24;;;;;;;37.30;22.57;;;9.50;99.90;;;;;;5036628;28;20493;-49
2023/03/30 03:03:52;;;;;;;41.20;23.67;;;9.50;99.90;;;;;;5036212;28;20491;-48
2023/03/30 03:06:19;;;;;;;42.00;24.67;;;9.40;99.90;;;;;;5036780;28;20427;-48
2023/03/30 03:08:47;;;;;;;41.10;23.30;;;9.40;99.90;;;;;;5037156;28;20455;-48
2023/03/30 03:11:12;;;;;;;44.53;25.47;;;9.30;99.90;;;;;;5036255;28;20419;-48
2023/03/30 03:13:38;;;;;;;38.93;23.87;;;9.30;99.90;;;;;;5036214;28;20412;-48
2023/03/30 03:16:06;;;;;;;38.83;23.90;;;9.30;99.90;;;;;;5036838;28;20186;-48
2023/03/30 03:18:33;;;;;;;40.77;22.33;;;9.30;99.90;;;;;;5036392;28;20430;-48
2023/03/30 03:21:00;;;;;;;55.70;27.13;;;9.30;99.90;;;;;;5036145;28;20792;-48
2023/03/30 03:23:26;;;;;;;49.17;25.53;;;9.20;99.90;;;;;;5036389;28;20457;-48
2023/03/30 03:25:51;;;;;;;43.03;25.07;;;9.20;99.90;;;;;;5036695;28;20423;-48
2023/03/30 03:28:17;;;;;;;48.97;24.33;;;9.10;99.90;;;;;;5036142;28;20418;-48
2023/03/30 03:30:43;;;;;;;40.43;24.70;;;9.10;99.90;;;;;;5036453;28;20514;-48
2023/03/30 03:33:08;;;;;;;34.87;22.87;;;9.10;99.90;;;;;;5035975;28;20217;-48
2023/03/30 03:35:38;;;;;;;37.93;23.10;;;9.10;99.90;;;;;;5036237;28;20177;-48
2023/03/30 03:38:04;;;;;;;37.17;22.87;;;9.10;99.90;;;;;;5035919;28;20268;-47
2023/03/30 03:40:29;;;;;;;37.80;23.60;;;9.00;99.90;;;;;;5035776;28;20426;-48
2023/03/30 03:42:55;;;;;;;40.40;23.50;;;8.90;99.90;;;;;;5035877;28;20460;-48
2023/03/30 03:45:20;;;;;;;38.07;23.93;;;9.10;99.90;;;;;;5035898;28;20321;-48
2023/03/30 03:47:49;;;;;;;36.93;23.90;;;9.10;99.90;;;;;;5035747;28;20273;-48
2023/03/30 03:50:14;;;;;;;37.00;23.73;;;9.00;99.90;;;;;;5036085;28;20178;-48
2023/03/30 03:52:40;;;;;;;49.87;24.83;;;9.00;99.90;;;;;;5035776;28;20746;-48
2023/03/30 03:55:06;;;;;;;34.90;22.80;;;9.10;99.90;;;;;;5035521;28;20217;-48
2023/03/30 03:57:32;;;;;;;40.77;23.67;;;9.00;99.90;;;;;;5035517;28;20194;-48
2023/03/30 03:59:58;;;;;;;42.77;23.03;;;9.10;99.90;;;;;;5035882;28;20421;-48
2023/03/30 04:02:25;;;;;;;37.00;21.77;;;9.10;99.90;;;;;;5035545;28;20237;-48
2023/03/30 04:04:52;;;;;;;45.57;24.23;;;9.10;99.90;;;;;;5035347;28;20417;-48
2023/03/30 04:07:18;;;;;;;41.13;23.13;;;9.20;99.90;;;;;;5035332;28;20408;-48
2023/03/30 04:09:43;;;;;;;40.53;23.90;;;9.10;99.90;;;;;;5035072;28;20487;-48
2023/03/30 04:12:09;;;;;;;39.40;23.70;;;9.10;99.90;;;;;;5035844;28;20244;-48
2023/03/30 04:14:34;;;;;;;40.20;22.60;;;9.10;99.90;;;;;;5035259;28;20605;-48
2023/03/30 04:17:00;;;;;;;34.50;21.73;;;9.10;99.90;;;;;;5035310;28;20208;-48
2023/03/30 04:19:26;;;;;;;42.17;22.77;;;9.20;99.90;;;;;;5035242;28;20182;-48
2023/03/30 04:21:54;;;;;;;37.27;22.07;;;9.20;99.90;;;;;;5035566;28;20312;-48
2023/03/30 04:24:21;;;;;;;37.47;22.33;;;9.30;99.90;;;;;;5035227;28;20425;-48
2023/03/30 04:26:47;;;;;;;36.60;21.43;;;9.30;99.90;;;;;;5034689;28;20416;-48
2023/03/30 04:29:15;;;;;;;40.13;21.57;;;9.30;99.90;;;;;;5035090;28;20431;-48
2023/03/30 04:31:45;;;;;;;33.50;21.00;;;9.30;99.90;;;;;;5035280;28;20928;-48
2023/03/30 04:34:14;;;;;;;33.47;21.60;;;9.20;99.90;;;;;;5035538;28;20936;-48
2023/03/30 04:36:43;;;;;;;33.03;21.57;;;9.20;99.90;;;;;;5034886;28;20421;-48
2023/03/30 04:39:10;;;;;;;37.30;22.10;;;9.30;99.90;;;;;;5034833;28;20440;-48
2023/03/30 04:41:36;;;;;;;37.60;22.83;;;9.20;99.90;;;;;;5034874;28;20416;-48
2023/03/30 04:44:08;;;;;;;37.37;22.53;;;9.10;99.90;;;;;;5034789;28;20559;-48
2023/03/30 04:46:34;;;;;;;32.50;20.63;;;9.10;99.90;;;;;;5034932;28;20881;-48
2023/03/30 04:49:00;;;;;;;35.17;21.27;;;9.10;99.90;;;;;;5035056;28;20414;-49
2023/03/30 04:51:26;;;;;;;34.40;20.50;;;9.20;99.90;;;;;;5034984;28;20444;-48
2023/03/30 04:53:52;;;;;;;35.80;19.73;;;9.20;99.90;;;;;;5034691;28;20455;-48
2023/03/30 04:56:18;;;;;;;34.20;19.80;;;9.30;99.90;;;;;;5034556;28;20425;-48
2023/03/30 04:58:43;;;;;;;33.13;20.00;;;9.30;99.90;;;;;;5034411;28;20187;-48
2023/03/30 05:01:09;;;;;;;28.30;18.70;;;9.30;99.90;;;;;;5034610;28;20571;-48
2023/03/30 05:03:35;;;;;;;31.97;19.20;;;9.30;99.90;;;;;;5034705;28;20533;-48
2023/03/30 05:06:01;;;;;;;33.10;20.20;;;9.30;99.90;;;;;;5034544;28;20181;-48
2023/03/30 05:08:28;;;;;;;31.20;18.77;;;9.30;99.90;;;;;;5034396;28;20458;-48
2023/03/30 05:10:53;;;;;;;28.43;18.27;;;9.40;99.90;;;;;;5034688;28;20515;-48
2023/03/30 05:13:19;;;;;;;30.77;19.10;;;9.40;99.90;;;;;;5034634;28;20522;-48
2023/03/30 05:15:51;;;;;;;34.50;19.80;;;9.40;99.90;;;;;;5034785;28;20228;-48
2023/03/30 05:18:17;;;;;;;36.30;20.10;;;9.40;99.90;;;;;;5033790;28;20186;-48
2023/03/30 05:20:42;;;;;;;28.23;19.33;;;9.40;99.90;;;;;;5034256;28;20424;-48
2023/03/30 05:23:08;;;;;;;33.83;19.17;;;9.40;99.90;;;;;;5033464;28;20222;-48
2023/03/30 05:25:33;;;;;;;34.10;19.87;;;9.40;99.90;;;;;;5034417;28;20182;-48
2023/03/30 05:27:59;;;;;;;31.33;18.93;;;9.40;99.90;;;;;;5034117;28;20642;-49
2023/03/30 05:30:24;;;;;;;31.50;19.47;;;9.40;99.90;;;;;;5034169;28;20545;-48
2023/03/30 05:32:50;;;;;;;31.00;19.83;;;9.50;99.90;;;;;;5034374;28;20243;-48
2023/03/30 05:35:16;;;;;;;30.20;19.07;;;9.60;99.90;;;;;;5034106;28;20185;-49
2023/03/30 05:37:41;;;;;;;26.97;18.47;;;9.60;99.90;;;;;;5034060;28;20185;-48
2023/03/30 05:40:10;;;;;;;22.87;15.10;;;9.60;99.90;;;;;;5033890;28;20181;-49
2023/03/30 05:42:36;;;;;;;26.90;16.80;;;9.70;99.90;;;;;;5033824;28;20210;-49
2023/03/30 05:45:03;;;;;;;24.30;17.00;;;9.80;99.90;;;;;;5033397;28;20484;-49
2023/03/30 05:47:28;;;;;;;31.57;16.50;;;9.90;99.90;;;;;;5034059;28;20515;-49
2023/03/30 05:49:54;;;;;;;24.53;16.10;;;9.90;55.50;;;;;;5033762;28;20831;-49
2023/03/30 05:52:20;;;;;;;23.40;14.87;;;9.90;28.20;;;;;;5033860;28;20289;-49
2023/03/30 05:54:46;;;;;;;20.77;14.00;;;9.90;18.80;;;;;;5033843;28;20186;-49
2023/03/30 05:57:11;;;;;;;17.43;11.67;;;10.00;29.90;;;;;;5034048;28;20423;-49
2023/03/30 05:59:37;;;;;;;26.30;12.10;;;10.20;12.10;;;;;;5033460;28;20189;-49
2023/03/30 06:02:05;;;;;;;20.30;11.23;;;10.40;1.00;;;;;;5032715;28;20228;-49
2023/03/30 06:04:31;;;;;;;18.40;11.30;;;10.50;1.00;;;;;;5033414;28;20217;-49
2023/03/30 06:06:57;;;;;;;15.27;10.20;;;10.50;1.00;;;;;;5033648;28;20417;-49
2023/03/30 06:09:24;;;;;;;21.43;11.47;;;10.50;1.00;;;;;;5033773;28;20235;-49
2023/03/30 06:11:50;;;;;;;19.60;11.87;;;10.40;1.00;;;;;;5033698;28;20308;-49
2023/03/30 06:14:16;;;;;;;25.33;11.73;;;10.40;1.00;;;;;;5033825;28;20409;-49
2023/03/30 06:16:41;;;;;;;16.50;11.30;;;10.40;9.80;;;;;;5033778;28;20413;-48
2023/03/30 06:19:07;;;;;;;17.33;10.63;;;10.40;21.20;;;;;;5033343;28;20270;-49
2023/03/30 06:21:33;;;;;;;18.10;11.67;;;10.50;45.90;;;;;;5033391;28;20228;-48
2023/03/30 06:23:58;;;;;;;17.67;12.27;;;10.50;72.10;;;;;;5033731;28;20692;-48
2023/03/30 06:26:24;;;;;;;19.63;11.57;;;10.60;89.40;;;;;;5033487;28;20282;-48
2023/03/30 06:28:49;;;;;;;22.80;12.50;;;10.70;99.90;;;;;;5033383;28;20182;-49
2023/03/30 06:31:15;;;;;;;15.20;11.57;;;10.70;99.00;;;;;;5033498;28;20857;-49
2023/03/30 06:33:40;;;;;;;20.40;12.03;;;10.70;91.70;;;;;;5034812;28;20569;-48
2023/03/30 06:36:12;;;;;;;18.20;12.13;;;10.70;93.10;;;;;;5037561;28;20181;-49
2023/03/30 06:38:38;;;;;;;24.43;11.87;;;10.90;99.90;;;;;;5037531;28;20257;-49
2023/03/30 06:41:07;;;;;;;18.80;11.43;;;11.10;99.90;;;;;;5037209;28;20487;-49
2023/03/30 06:43:33;;;;;;;18.17;10.80;;;11.20;99.90;;;;;;5037099;28;20469;-49
2023/03/30 06:45:59;;;;;;;17.07;10.90;;;11.30;53.50;;;;;;5037631;28;20433;-47
2023/03/30 06:48:24;;;;;;;19.05;10.52;;;11.40;1.00;;;;;;5036351;28;20440;-50
2023/03/30 06:50:51;;;;;;;22.20;11.30;;;11.40;1.00;;;;;;5037207;28;20193;-47
2023/03/30 06:53:17;;;;;;;21.90;10.20;;;11.50;1.00;;;;;;5037335;28;20212;-50
2023/03/30 06:55:42;;;;;;;19.80;10.13;;;11.60;1.00;;;;;;5037333;28;20459;-48
2023/03/30 06:58:08;;;;;;;16.00;9.03;;;11.90;1.00;;;;;;5037102;28;21000;-48
2023/03/30 07:00:34;;;;;;;15.07;9.30;;;12.20;1.00;;;;;;5034045;28;20182;-48
2023/03/30 07:03:00;;;;;;;14.27;9.23;;;12.20;99.90;;;;;;5034942;28;20819;-47
2023/03/30 07:05:28;;;;;;;14.80;8.40;;;12.20;99.90;;;;;;5036937;28;20229;-48
2023/03/30 07:07:55;;;;;;;13.63;8.40;;;12.20;99.90;;;;;;5036757;28;20183;-47
2023/03/30 07:10:21;;;;;;;13.30;8.10;;;12.30;99.90;;;;;;5035310;28;20538;-48
2023/03/30 07:12:47;;;;;;;13.52;8.15;;;12.40;99.90;;;;;;5034417;28;20908;-48
2023/03/30 07:15:14;;;;;;;14.87;8.57;;;12.50;99.90;;;;;;5036790;28;20214;-49
2023/03/30 07:17:40;;;;;;;17.13;8.47;;;12.60;1.00;;;;;;5036528;28;20211;-49
2023/03/30 07:20:07;;;;;;;12.67;7.90;;;12.50;1.00;;;;;;5036599;28;20436;-49
2023/03/30 07:22:33;;;;;;;11.37;7.43;;;12.50;99.90;;;;;;5036550;28;20460;-49
2023/03/30 07:24:59;;;;;;;12.03;7.80;;;12.40;99.90;;;;;;5035248;28;20433;-49
2023/03/30 07:27:24;;;;;;;15.83;7.63;;;12.30;99.90;;;;;;5035252;28;20417;-49
2023/03/30 07:29:51;;;;;;;14.57;8.23;;;12.20;99.90;;;;;;5034058;28;20189;-49
2023/03/30 07:32:16;;;;;;;9.73;6.90;;;12.30;99.90;;;;;;5035858;28;20236;-49
2023/03/30 07:34:43;;;;;;;7.43;6.33;;;12.30;99.90;;;;;;5035740;28;20425;-49
2023/03/30 07:37:09;;;;;;;9.67;6.90;;;12.30;99.90;;;;;;5036070;28;20196;-49
2023/03/30 07:39:35;;;;;;;16.30;7.83;;;12.30;99.90;;;;;;5035976;28;20417;-50
2023/03/30 07:42:01;;;;;;;11.10;7.17;;;12.40;40.50;;;;;;5035838;28;20685;-50
2023/03/30 07:44:28;;;;;;;9.93;6.90;;;12.40;1.00;;;;;;5035319;28;20464;-49
2023/03/30 07:46:54;;;;;;;13.83;7.97;;;12.40;1.00;;;;;;5035533;28;20183;-49
2023/03/30 07:49:20;;;;;;;10.80;6.30;;;12.40;1.00;;;;;;5034760;28;20417;-49
2023/03/30 07:51:46;;;;;;;9.70;6.30;;;12.40;23.40;;;;;;5034560;28;20439;-48
2023/03/30 07:54:12;;;;;;;13.57;6.83;;;12.40;99.90;;;;;;5035802;28;20200;-49
2023/03/30 07:56:38;;;;;;;17.67;7.53;;;12.50;99.90;;;;;;5035470;28;20285;-48
2023/03/30 07:59:04;;;;;;;13.73;7.80;;;12.50;99.90;;;;;;5035324;28;20409;-49
2023/03/30 08:01:32;;;;;;;17.10;6.63;;;12.50;97.30;;;;;;5035501;28;20416;-48
2023/03/30 08:03:59;;;;;;;11.23;6.30;;;12.50;99.90;;;;;;5035096;28;20421;-48
2023/03/30 08:06:25;;;;;;;8.23;6.30;;;12.60;99.90;;;;;;5034956;28;20443;-49
2023/03/30 08:08:51;;;;;;;9.57;7.80;;;12.60;99.90;;;;;;5035292;28;20456;-48
2023/03/30 08:11:17;;;;;;;12.90;6.80;;;12.60;99.90;;;;;;5035421;28;20450;-48
2023/03/30 08:13:43;;;;;;;11.57;7.10;;;12.60;94.30;;;;;;5035170;28;20186;-48
2023/03/30 08:16:09;;;;;;;10.80;6.40;;;12.60;90.90;;;;;;5034631;28;20201;-49
2023/03/30 08:18:35;;;;;;;13.30;7.23;;;12.70;22.50;;;;;;5035249;28;20425;-49
2023/03/30 08:21:02;;;;;;;11.53;6.30;;;12.70;1.00;;;;;;5035046;28;20221;-48
2023/03/30 08:23:28;;;;;;;12.07;6.60;;;12.70;1.00;;;;;;5034656;28;20472;-48
2023/03/30 08:25:58;;;;;;;14.23;6.10;;;12.90;1.00;;;;;;5034994;28;20421;-50
2023/03/30 08:28:23;;;;;;;12.65;5.95;;;13.00;99.90;;;;;;5034143;28;20425;-49
2023/03/30 08:30:49;;;;;;;11.00;6.03;;;13.10;2.10;;;;;;5035002;28;20280;-49
2023/03/30 08:33:15;;;;;;;9.50;5.47;;;13.20;1.00;;;;;;5034648;28;20182;-49
2023/03/30 08:35:45;;;;;;;10.80;6.33;;;13.10;99.90;;;;;;5034857;28;20273;-48
2023/03/30 08:38:16;;;;;;;11.70;6.67;;;13.10;1.00;;;;;;5034169;28;20970;-49
2023/03/30 08:40:43;;;;;;;15.53;6.10;;;13.10;99.90;;;;;;5034652;28;20475;-48
2023/03/30 08:43:15;;;;;;;10.97;5.33;;;13.00;1.00;;;;;;5034447;28;20473;-48
2023/03/30 08:45:42;;;;;;;12.07;6.23;;;13.00;1.00;;;;;;5034789;28;20563;-50
2023/03/30 08:48:18;;;;;;;12.33;6.03;;;12.90;99.90;;;;;;5034286;28;21002;-50
2023/03/30 08:51:01;;;;;;;18.57;6.20;;;12.90;99.90;;;;;;5034583;28;20516;-49
2023/03/30 08:53:29;;;;;;;13.33;6.50;;;12.90;1.00;;;;;;5034381;28;20463;-48
2023/03/30 08:56:01;;;;;;;11.03;5.50;;;13.40;1.00;;;;;;5034452;28;20425;-48
2023/03/30 08:58:51;;;;;;;10.60;5.43;;;14.10;1.00;;;;;;5034630;28;20412;-48
2023/03/30 09:01:45;;;;;;;9.97;5.77;;;14.40;1.00;;;;;;5034302;28;20872;-48
2023/03/30 09:04:55;;;;;;;9.93;5.67;;;14.50;1.00;;;;;;5033714;28;20456;-49
2023/03/30 09:07:26;;;;;;;13.93;5.07;;;14.50;99.90;;;;;;5011933;28;20444;-49
2023/03/30 09:09:52;;;;;;;11.23;5.53;;;14.60;22.90;;;;;;5030604;28;20433;-49
2023/03/30 09:12:45;;;;;;;15.70;5.93;;;14.60;18.30;;;;;;5033181;28;20453;-50
2023/03/30 09:15:24;;;;;;;8.37;4.40;;;14.90;99.90;;;;;;5034129;28;20413;-49
2023/03/30 09:18:01;;;;;;;9.43;5.63;;;15.50;1.00;;;;;;5034136;28;20416;-51
2023/03/30 09:20:29;;;;;;;8.13;4.87;;;16.10;99.90;;;;;;5033773;28;20424;-49
2023/03/30 09:22:59;;;;;;;8.83;5.07;;;16.50;1.00;;;;;;5034583;28;20468;-49
2023/03/30 09:25:37;;;;;;;7.67;5.13;;;16.60;1.00;;;;;;5033944;28;20421;-49
2023/03/30 09:28:21;;;;;;;8.03;4.60;;;16.60;1.00;;;;;;5034046;28;20401;-50
2023/03/30 09:31:00;;;;;;;9.60;5.03;;;16.20;1.00;;;;;;5034470;28;20496;-50
2023/03/30 09:33:51;;;;;;;10.03;5.53;;;15.80;1.00;;;;;;5034446;28;20412;-49
2023/03/30 09:36:22;;;;;;;14.00;5.13;;;15.40;1.00;;;;;;5034442;28;20407;-49
2023/03/30 09:38:48;;;;;;;9.57;5.60;;;15.20;1.00;;;;;;5034413;28;20420;-50
2023/03/30 09:41:47;;;;;;;9.40;4.93;;;15.00;1.00;;;;;;5034062;28;20788;-49
2023/03/30 09:44:24;;;;;;;7.83;5.53;;;14.90;1.00;;;;;;5033792;28;20249;-49
2023/03/30 09:46:56;;;;;;;10.80;4.97;;;14.70;13.90;;;;;;5034036;28;20404;-49
2023/03/30 09:49:28;;;;;;;10.27;5.50;;;14.60;44.90;;;;;;5033731;28;20417;-49
2023/03/30 09:52:21;;;;;;;15.20;6.63;;;14.50;35.20;;;;;;5033607;28;20478;-48
2023/03/30 09:54:47;;;;;;;10.90;6.00;;;14.40;90.10;;;;;;5031077;28;20441;-50
2023/03/30 09:57:31;;;;;;;12.70;5.80;;;14.40;85.70;;;;;;5033905;28;20436;-49
2023/03/30 09:59:59;;;;;;;8.60;5.80;;;14.40;83.50;;;;;;5033594;28;20656;-49
2023/03/30 10:02:27;;;;;;;14.73;6.20;;;14.50;99.90;;;;;;5033329;28;20514;-48
2023/03/30 10:04:59;;;;;;;8.33;5.60;;;14.70;55.60;;;;;;5033926;28;20430;-49
2023/03/30 10:07:51;;;;;;;9.03;4.73;;;14.90;14.10;;;;;;5034218;28;20461;-48
2023/03/30 10:10:19;;;;;;;6.53;4.00;;;15.00;1.00;;;;;;5040091;28;20424;-48
2023/03/30 10:12:47;;;;;;;9.03;4.93;;;15.40;1.00;;;;;;5039696;28;20460;-52
2023/03/30 10:15:19;;;;;;;11.27;4.70;;;15.70;1.00;;;;;;5040391;28;20720;-49
2023/03/30 10:17:46;;;;;;;7.30;4.00;;;15.80;1.00;;;;;;5040326;28;20428;-50
2023/03/30 10:20:21;;;;;;;12.60;4.40;;;15.80;1.00;;;;;;5040285;28;20449;-50
2023/03/30 10:22:51;;;;;;;5.73;3.90;;;15.50;1.00;;;;;;5040326;28;20467;-48
2023/03/30 10:25:20;;;;;;;7.27;3.70;;;15.40;1.00;;;;;;5040120;28;20429;-50
2023/03/30 10:27:52;;;;;;;18.53;4.73;;;15.20;1.00;;;;;;5039850;28;20420;-48
2023/03/30 10:30:23;;;;;;;12.13;3.83;;;15.20;1.00;;;;;;5040189;28;20482;-50
2023/03/30 10:32:50;;;;;;;6.47;3.80;;;15.20;1.00;;;;;;5040360;28;20405;-49
2023/03/30 10:35:34;;;;;;;8.33;4.67;;;15.20;1.00;;;;;;5040215;28;20447;-50
2023/03/30 10:38:01;;;;;;;12.13;3.87;;;15.40;1.00;;;;;;5040210;28;20402;-50
2023/03/30 10:40:38;;;;;;;5.07;3.20;;;15.50;1.00;;;;;;5040354;28;20509;-50
2023/03/30 10:43:11;;;;;;;7.97;3.87;;;15.70;1.00;;;;;;5040412;28;20451;-50
2023/03/30 10:45:43;;;;;;;10.70;3.80;;;15.60;1.00;;;;;;5040379;28;20464;-50
2023/03/30 10:48:15;;;;;;;10.10;3.67;;;15.60;1.00;;;;;;5040384;28;20423;-50
2023/03/30 10:51:00;;;;;;;8.73;3.93;;;15.50;1.00;;;;;;5039868;28;20411;-49
2023/03/30 10:53:58;;;;;;;5.13;3.60;;;15.50;1.00;;;;;;5039553;28;20475;-50
2023/03/30 10:56:45;;;;;;;10.53;4.30;;;15.30;1.00;;;;;;5040182;28;20460;-49
2023/03/30 10:59:53;;;;;;;11.33;4.10;;;15.10;1.00;;;;;;5040048;28;20806;-49
2023/03/30 11:02:21;;;;;;;5.50;4.30;;;15.00;1.00;;;;;;5039072;28;20472;-49
2023/03/30 11:04:56;;;;;;;9.27;4.97;;;14.90;1.00;;;;;;5039675;28;20420;-50
2023/03/30 11:07:53;;;;;;;9.17;4.70;;;14.80;1.00;;;;;;5039843;28;20508;-49
2023/03/30 11:10:37;;;;;;;6.00;4.43;;;14.90;1.00;;;;;;5039853;28;20415;-50
2023/03/30 11:13:11;;;;;;;9.20;4.27;;;15.20;1.00;;;;;;5039568;28;20399;-50
2023/03/30 11:15:45;;;;;;;8.70;3.67;;;15.40;1.00;;;;;;5039455;28;20507;-49
2023/03/30 11:18:26;;;;;;;5.37;3.17;;;15.50;1.00;;;;;;5040098;28;20421;-49
2023/03/30 11:21:05;;;;;;;10.03;3.30;;;15.80;1.00;;;;;;5035858;28;20765;-49
2023/03/30 11:23:54;;;;;;;4.50;2.50;;;16.10;1.00;;;;;;5036043;28;20813;-49
2023/03/30 11:26:30;;;;;;;8.73;2.50;;;16.20;1.00;;;;;;5036186;28;20746;-50
2023/03/30 11:29:13;;;;;;;7.23;2.57;;;16.50;1.00;;;;;;5036647;28;20729;-49
2023/03/30 11:31:47;;;;;;;4.97;1.80;;;16.90;1.00;;;;;;5036559;28;20448;-49
2023/03/30 11:34:30;;;;;;;11.33;2.23;;;17.20;1.00;;;;;;5036338;28;20501;-49
2023/03/30 11:37:16;;;;;;;7.30;2.00;;;17.10;1.00;;;;;;5036334;28;20452;-50
2023/03/30 11:39:50;;;;;;;6.40;1.87;;;17.20;1.00;;;;;;5035940;28;20772;-50
2023/03/30 11:42:23;;;;;;;4.37;1.80;;;17.10;1.00;;;;;;5036077;28;20467;-49
2023/03/30 11:44:50;;;;;;;5.60;1.60;;;17.40;1.00;;;;;;5035977;28;20476;-50
2023/03/30 11:47:31;;;;;;;5.23;1.80;;;17.70;1.00;;;;;;5035858;28;20455;-50
2023/03/30 11:50:20;;;;;;;8.47;2.00;;;17.80;1.00;;;;;;5036339;28;20796;-50
2023/03/30 11:52:58;;;;;;;4.73;2.13;;;17.30;1.00;;;;;;5036067;28;20420;-50
2023/03/30 11:55:49;;;;;;;5.27;1.63;;;17.00;1.00;;;;;;5035870;28;20745;-50
2023/03/30 11:58:23;;;;;;;5.33;1.70;;;16.70;1.00;;;;;;5036003;28;20756;-50
2023/03/30 12:01:17;;;;;;;6.93;2.00;;;16.50;1.00;;;;;;5035636;28;20406;-50
2023/03/30 12:04:14;;;;;;;7.93;1.93;;;16.30;1.00;;;;;;5035695;28;20465;-50
2023/03/30 12:06:59;;;;;;;7.90;1.93;;;16.10;1.00;;;;;;5035903;28;20417;-50
2023/03/30 12:09:25;;;;;;;10.20;2.90;;;15.80;1.00;;;;;;5035831;28;20408;-50
2023/03/30 12:12:02;;;;;;;10.70;2.40;;;15.20;1.00;;;;;;5035091;28;20429;-50
2023/03/30 12:14:46;;;;;;;10.23;2.73;;;14.80;1.00;;;;;;5035613;28;20220;-49
2023/03/30 12:17:33;;;;;;;13.60;2.80;;;14.40;1.00;;;;;;5035796;28;20870;-49
2023/03/30 12:20:13;;;;;;;11.07;2.73;;;14.20;1.00;;;;;;5035790;28;20405;-49
2023/03/30 12:22:48;;;;;;;7.87;2.53;;;13.90;1.00;;;;;;5035566;28;20467;-49
2023/03/30 12:25:23;;;;;;;12.80;2.43;;;13.60;1.00;;;;;;5035442;28;20424;-49
2023/03/30 12:28:13;;;;;;;12.13;3.17;;;13.30;1.00;;;;;;5035614;28;20500;-49
2023/03/30 12:30:47;;;;;;;6.70;2.50;;;13.10;1.00;;;;;;5032222;28;20524;-49
2023/03/30 12:33:25;;;;;;;16.10;3.50;;;13.10;78.20;;;;;;5035315;28;20471;-50
2023/03/30 12:35:53;;;;;;;12.77;3.20;;;13.30;95.40;;;;;;5035389;28;20501;-49
2023/03/30 12:38:36;;;;;;;12.07;2.50;;;14.10;76.20;;;;;;5035201;28;20431;-49
2023/03/30 12:41:17;;;;;;;8.23;2.50;;;15.40;1.00;;;;;;5035105;28;20409;-50
2023/03/30 12:44:20;;;;;;;10.00;2.50;;;16.50;1.00;;;;;;5034807;28;20475;-50
2023/03/30 12:46:58;;;;;;;11.70;2.67;;;17.60;1.00;;;;;;5034377;28;20461;-51
2023/03/30 12:50:08;;;;;;;10.20;2.90;;;17.30;1.00;;;;;;5034955;28;20404;-50
2023/03/30 12:53:08;;;;;;;9.47;2.60;;;16.90;1.00;;;;;;5034835;28;20422;-50
2023/03/30 12:55:51;;;;;;;16.83;3.10;;;16.30;1.00;;;;;;5029582;28;20437;-50
2023/03/30 12:58:57;;;;;;;5.70;2.50;;;16.00;1.00;;;;;;5034820;28;20508;-50
2023/03/30 13:01:44;;;;;;;9.60;2.97;;;15.50;1.00;;;;;;5034469;28;20397;-50
2023/03/30 13:04:23;;;;;;;14.00;2.70;;;15.50;1.00;;;;;;5034361;28;20413;-50
2023/03/30 13:07:01;;;;;;;18.63;3.50;;;16.10;1.00;;;;;;5034677;28;20412;-50
2023/03/30 13:09:30;;;;;;;9.20;3.10;;;16.10;1.00;;;;;;5034392;28;20409;-51